sensor_id;sensor_type;location;lat;lon;timestamp;pressure;altitude;pressure_sealevel;temperature;humidity
46946;BME280;32679;40.810;14.498;2023-04-08T00:01:09;100300.81;;;8.63;76.26
46946;BME280;32679;40.810;14.498;2023-04-08T00:03:39;100284.88;;;8.60;76.09
46946;BME280;32679;40.810;14.498;2023-04-08T00:06:08;100294.66;;;8.57;76.13
46946;BME280;32679;40.810;14.498;2023-04-08T00:08:35;100295.50;;;8.58;76.45
46946;BME280;32679;40.810;14.498;2023-04-08T00:11:04;100287.19;;;8.58;76.73
46946;BME280;32679;40.810;14.498;2023-04-08T00:13:32;100291.44;;;8.55;76.88
46946;BME280;32679;40.810;14.498;2023-04-08T00:15:57;100290.88;;;8.62;76.46
46946;BME280;32679;40.810;14.498;2023-04-08T00:18:25;100283.69;;;8.73;75.86
46946;BME280;32679;40.810;14.498;2023-04-08T00:20:53;100278.63;;;8.63;76.16
46946;BME280;32679;40.810;14.498;2023-04-08T00:23:24;100277.22;;;8.57;76.58
46946;BME280;32679;40.810;14.498;2023-04-08T00:25:54;100275.63;;;8.56;76.28
46946;BME280;32679;40.810;14.498;2023-04-08T00:28:20;100281.41;;;8.51;76.55
46946;BME280;32679;40.810;14.498;2023-04-08T00:30:48;100270.28;;;8.51;76.88
46946;BME280;32679;40.810;14.498;2023-04-08T00:33:13;100274.22;;;8.50;77.05
46946;BME280;32679;40.810;14.498;2023-04-08T00:35:47;100269.63;;;8.42;77.76
46946;BME280;32679;40.810;14.498;2023-04-08T00:38:12;100274.25;;;8.37;77.79
46946;BME280;32679;40.810;14.498;2023-04-08T00:40:38;100264.25;;;8.24;78.53
46946;BME280;32679;40.810;14.498;2023-04-08T00:43:06;100260.53;;;8.20;78.67
46946;BME280;32679;40.810;14.498;2023-04-08T00:45:34;100263.09;;;8.25;78.43
46946;BME280;32679;40.810;14.498;2023-04-08T00:48:03;100258.59;;;8.33;77.55
46946;BME280;32679;40.810;14.498;2023-04-08T00:50:31;100255.47;;;8.34;77.75
46946;BME280;32679;40.810;14.498;2023-04-08T00:52:59;100257.44;;;8.22;77.91
46946;BME280;32679;40.810;14.498;2023-04-08T00:55:30;100260.09;;;8.30;78.13
46946;BME280;32679;40.810;14.498;2023-04-08T00:57:58;100255.47;;;8.22;78.18
46946;BME280;32679;40.810;14.498;2023-04-08T01:00:24;100258.47;;;8.29;77.65
46946;BME280;32679;40.810;14.498;2023-04-08T01:03:07;100240.69;;;8.18;77.86
46946;BME280;32679;40.810;14.498;2023-04-08T01:08:26;100246.72;;;8.32;77.17
46946;BME280;32679;40.810;14.498;2023-04-08T01:10:58;100246.94;;;8.27;78.60
46946;BME280;32679;40.810;14.498;2023-04-08T01:13:30;100245.31;;;8.26;78.45
46946;BME280;32679;40.810;14.498;2023-04-08T01:16:02;100238.41;;;8.32;78.27
46946;BME280;32679;40.810;14.498;2023-04-08T01:18:33;100234.22;;;8.14;78.77
46946;BME280;32679;40.810;14.498;2023-04-08T01:21:07;100240.69;;;8.18;79.53
46946;BME280;32679;40.810;14.498;2023-04-08T01:26:06;100229.72;;;8.22;79.08
46946;BME280;32679;40.810;14.498;2023-04-08T01:28:34;100241.03;;;8.29;78.64
46946;BME280;32679;40.810;14.498;2023-04-08T01:31:02;100243.47;;;8.30;78.82
46946;BME280;32679;40.810;14.498;2023-04-08T01:33:30;100232.38;;;8.30;78.75
46946;BME280;32679;40.810;14.498;2023-04-08T01:35:59;100226.59;;;8.23;78.72
46946;BME280;32679;40.810;14.498;2023-04-08T01:38:25;100236.88;;;8.35;78.43
46946;BME280;32679;40.810;14.498;2023-04-08T01:40:52;100236.31;;;8.29;78.28
46946;BME280;32679;40.810;14.498;2023-04-08T01:43:19;100233.31;;;8.34;78.73
46946;BME280;32679;40.810;14.498;2023-04-08T01:45:49;100231.69;;;8.33;78.35
46946;BME280;32679;40.810;14.498;2023-04-08T01:48:18;100232.66;;;8.37;77.98
46946;BME280;32679;40.810;14.498;2023-04-08T01:50:47;100225.22;;;8.29;77.81
46946;BME280;32679;40.810;14.498;2023-04-08T01:53:13;100218.06;;;8.28;78.45
46946;BME280;32679;40.810;14.498;2023-04-08T01:55:40;100214.94;;;8.30;78.47
46946;BME280;32679;40.810;14.498;2023-04-08T01:58:07;100212.72;;;8.35;77.73
46946;BME280;32679;40.810;14.498;2023-04-08T02:00:37;100215.72;;;8.30;77.30
46946;BME280;32679;40.810;14.498;2023-04-08T02:03:05;100206.03;;;8.24;77.58
46946;BME280;32679;40.810;14.498;2023-04-08T02:05:32;100209.28;;;8.26;77.96
46946;BME280;32679;40.810;14.498;2023-04-08T02:07:58;100203.41;;;8.28;77.93
46946;BME280;32679;40.810;14.498;2023-04-08T02:10:26;100198.22;;;8.38;77.25
46946;BME280;32679;40.810;14.498;2023-04-08T02:12:55;100197.72;;;8.61;75.72
46946;BME280;32679;40.810;14.498;2023-04-08T02:15:21;100203.28;;;8.49;76.57
46946;BME280;32679;40.810;14.498;2023-04-08T02:17:52;100201.78;;;8.39;77.25
46946;BME280;32679;40.810;14.498;2023-04-08T02:20:30;100193.56;;;8.30;77.80
46946;BME280;32679;40.810;14.498;2023-04-08T02:25:37;100185.28;;;8.43;77.16
46946;BME280;32679;40.810;14.498;2023-04-08T02:28:05;100186.16;;;8.34;77.07
46946;BME280;32679;40.810;14.498;2023-04-08T02:30:31;100190.91;;;8.34;77.67
46946;BME280;32679;40.810;14.498;2023-04-08T02:33:00;100181.78;;;8.33;78.35
46946;BME280;32679;40.810;14.498;2023-04-08T02:35:27;100182.16;;;8.32;78.00
46946;BME280;32679;40.810;14.498;2023-04-08T02:37:53;100185.25;;;8.30;77.99
46946;BME280;32679;40.810;14.498;2023-04-08T02:40:31;100198.44;;;8.46;77.75
46946;BME280;32679;40.810;14.498;2023-04-08T02:42:58;100193.38;;;8.48;77.60
46946;BME280;32679;40.810;14.498;2023-04-08T02:45:30;100193.84;;;8.37;77.19
46946;BME280;32679;40.810;14.498;2023-04-08T02:47:58;100201.13;;;8.42;78.15
46946;BME280;32679;40.810;14.498;2023-04-08T02:50:27;100202.38;;;8.45;77.91
46946;BME280;32679;40.810;14.498;2023-04-08T02:52:55;100191.72;;;8.47;77.89
46946;BME280;32679;40.810;14.498;2023-04-08T02:55:23;100197.78;;;8.36;77.89
46946;BME280;32679;40.810;14.498;2023-04-08T02:57:48;100194.06;;;8.45;77.83
46946;BME280;32679;40.810;14.498;2023-04-08T03:00:14;100193.56;;;8.55;77.34
46946;BME280;32679;40.810;14.498;2023-04-08T03:02:45;100188.38;;;8.53;77.38
46946;BME280;32679;40.810;14.498;2023-04-08T03:05:11;100182.94;;;8.57;76.64
46946;BME280;32679;40.810;14.498;2023-04-08T03:07:37;100192.09;;;8.45;77.25
46946;BME280;32679;40.810;14.498;2023-04-08T03:10:03;100176.38;;;8.49;77.55
46946;BME280;32679;40.810;14.498;2023-04-08T03:12:34;100179.25;;;8.53;76.84
46946;BME280;32679;40.810;14.498;2023-04-08T03:15:04;100178.22;;;8.45;76.88
46946;BME280;32679;40.810;14.498;2023-04-08T03:17:30;100168.75;;;8.46;77.41
46946;BME280;32679;40.810;14.498;2023-04-08T03:19:59;100170.13;;;8.40;77.96
46946;BME280;32679;40.810;14.498;2023-04-08T03:22:27;100166.53;;;8.52;77.94
46946;BME280;32679;40.810;14.498;2023-04-08T03:24:55;100167.56;;;8.59;77.61
46946;BME280;32679;40.810;14.498;2023-04-08T03:27:23;100168.63;;;8.55;77.40
46946;BME280;32679;40.810;14.498;2023-04-08T03:29:48;100161.22;;;8.59;77.61
46946;BME280;32679;40.810;14.498;2023-04-08T03:32:14;100163.19;;;8.46;77.49
46946;BME280;32679;40.810;14.498;2023-04-08T03:34:42;100155.94;;;8.42;78.54
46946;BME280;32679;40.810;14.498;2023-04-08T03:37:07;100160.66;;;8.41;78.53
46946;BME280;32679;40.810;14.498;2023-04-08T03:39:35;100158.00;;;8.32;78.37
46946;BME280;32679;40.810;14.498;2023-04-08T03:42:01;100159.50;;;8.30;78.85
46946;BME280;32679;40.810;14.498;2023-04-08T03:44:34;100161.72;;;8.36;78.32
46946;BME280;32679;40.810;14.498;2023-04-08T03:47:02;100161.38;;;8.38;78.37
46946;BME280;32679;40.810;14.498;2023-04-08T03:49:30;100160.56;;;8.37;78.20
46946;BME280;32679;40.810;14.498;2023-04-08T03:51:56;100155.44;;;8.52;78.05
46946;BME280;32679;40.810;14.498;2023-04-08T03:54:23;100160.53;;;8.50;77.87
46946;BME280;32679;40.810;14.498;2023-04-08T03:56:49;100170.22;;;8.56;77.91
46946;BME280;32679;40.810;14.498;2023-04-08T03:59:17;100174.38;;;8.62;78.41
46946;BME280;32679;40.810;14.498;2023-04-08T04:01:42;100156.38;;;8.56;77.83
46946;BME280;32679;40.810;14.498;2023-04-08T04:04:13;100167.09;;;8.70;78.08
46946;BME280;32679;40.810;14.498;2023-04-08T04:06:38;100171.84;;;8.69;78.00
46946;BME280;32679;40.810;14.498;2023-04-08T04:09:04;100157.53;;;8.55;78.25
46946;BME280;32679;40.810;14.498;2023-04-08T04:11:35;100152.22;;;8.50;78.41
46946;BME280;32679;40.810;14.498;2023-04-08T04:14:02;100156.38;;;8.56;78.17
46946;BME280;32679;40.810;14.498;2023-04-08T04:16:28;100153.38;;;8.49;78.57
46946;BME280;32679;40.810;14.498;2023-04-08T04:18:56;100150.84;;;8.44;78.62
46946;BME280;32679;40.810;14.498;2023-04-08T04:21:24;100147.81;;;8.61;78.15
46946;BME280;32679;40.810;14.498;2023-04-08T04:23:54;100154.41;;;8.56;77.98
46946;BME280;32679;40.810;14.498;2023-04-08T04:26:20;100151.63;;;8.56;78.94
46946;BME280;32679;40.810;14.498;2023-04-08T04:28:45;100153.78;;;8.75;78.56
46946;BME280;32679;40.810;14.498;2023-04-08T04:31:21;100151.06;;;8.63;78.03
46946;BME280;32679;40.810;14.498;2023-04-08T04:33:50;100158.78;;;8.57;78.31
46946;BME280;32679;40.810;14.498;2023-04-08T04:36:15;100152.25;;;8.78;78.00
46946;BME280;32679;40.810;14.498;2023-04-08T04:38:44;100156.91;;;8.74;77.70
46946;BME280;32679;40.810;14.498;2023-04-08T04:41:11;100145.34;;;8.72;78.56
46946;BME280;32679;40.810;14.498;2023-04-08T04:43:36;100145.72;;;8.70;78.69
46946;BME280;32679;40.810;14.498;2023-04-08T04:46:02;100134.13;;;8.80;78.48
46946;BME280;32679;40.810;14.498;2023-04-08T04:48:33;100147.63;;;8.82;78.31
46946;BME280;32679;40.810;14.498;2023-04-08T04:51:02;100143.81;;;8.86;77.31
46946;BME280;32679;40.810;14.498;2023-04-08T04:53:31;100132.91;;;8.93;77.47
46946;BME280;32679;40.810;14.498;2023-04-08T04:55:59;100131.03;;;8.98;77.56
46946;BME280;32679;40.810;14.498;2023-04-08T04:58:30;100117.16;;;8.98;78.03
46946;BME280;32679;40.810;14.498;2023-04-08T05:00:59;100115.66;;;9.00;77.26
46946;BME280;32679;40.810;14.498;2023-04-08T05:03:24;100128.47;;;9.05;77.61
46946;BME280;32679;40.810;14.498;2023-04-08T05:05:53;100134.31;;;9.15;75.58
46946;BME280;32679;40.810;14.498;2023-04-08T05:08:19;100143.00;;;9.14;76.43
46946;BME280;32679;40.810;14.498;2023-04-08T05:10:45;100148.22;;;9.31;76.33
46946;BME280;32679;40.810;14.498;2023-04-08T05:13:11;100142.13;;;9.26;76.45
46946;BME280;32679;40.810;14.498;2023-04-08T05:15:41;100136.69;;;9.29;76.05
46946;BME280;32679;40.810;14.498;2023-04-08T05:18:07;100143.34;;;9.56;75.40
46946;BME280;32679;40.810;14.498;2023-04-08T05:20:33;100137.88;;;9.60;75.83
46946;BME280;32679;40.810;14.498;2023-04-08T05:22:58;100137.69;;;9.84;74.29
46946;BME280;32679;40.810;14.498;2023-04-08T05:25:26;100138.50;;;9.85;74.21
46946;BME280;32679;40.810;14.498;2023-04-08T05:27:55;100137.22;;;10.65;72.27
46946;BME280;32679;40.810;14.498;2023-04-08T05:30:21;100149.69;;;10.90;70.21
46946;BME280;32679;40.810;14.498;2023-04-08T05:32:52;100149.63;;;10.87;70.08
46946;BME280;32679;40.810;14.498;2023-04-08T05:35:20;100157.00;;;11.37;68.33
46946;BME280;32679;40.810;14.498;2023-04-08T05:37:49;100162.19;;;12.27;65.98
46946;BME280;32679;40.810;14.498;2023-04-08T05:40:17;100164.09;;;13.40;61.80
46946;BME280;32679;40.810;14.498;2023-04-08T05:42:45;100165.69;;;13.07;58.80
46946;BME280;32679;40.810;14.498;2023-04-08T05:45:13;100168.41;;;12.43;59.83
46946;BME280;32679;40.810;14.498;2023-04-08T05:47:41;100154.50;;;11.97;62.92
46946;BME280;32679;40.810;14.498;2023-04-08T05:50:07;100157.13;;;11.44;66.36
46946;BME280;32679;40.810;14.498;2023-04-08T05:52:40;100162.84;;;11.51;65.35
46946;BME280;32679;40.810;14.498;2023-04-08T05:55:06;100169.91;;;11.45;64.60
46946;BME280;32679;40.810;14.498;2023-04-08T05:57:31;100166.53;;;11.36;66.83
46946;BME280;32679;40.810;14.498;2023-04-08T05:59:57;100167.94;;;11.26;67.00
46946;BME280;32679;40.810;14.498;2023-04-08T06:02:25;100167.00;;;11.19;67.36
46946;BME280;32679;40.810;14.498;2023-04-08T06:04:55;100169.41;;;11.20;67.67
46946;BME280;32679;40.810;14.498;2023-04-08T06:07:23;100162.03;;;11.09;68.75
46946;BME280;32679;40.810;14.498;2023-04-08T06:09:51;100153.06;;;10.99;68.96
46946;BME280;32679;40.810;14.498;2023-04-08T06:12:19;100149.25;;;10.88;69.10
46946;BME280;32679;40.810;14.498;2023-04-08T06:14:45;100148.88;;;10.90;69.39
46946;BME280;32679;40.810;14.498;2023-04-08T06:17:13;100159.94;;;10.86;68.72
46946;BME280;32679;40.810;14.498;2023-04-08T06:19:38;100156.81;;;10.88;69.84
46946;BME280;32679;40.810;14.498;2023-04-08T06:22:06;100159.88;;;11.02;70.07
46946;BME280;32679;40.810;14.498;2023-04-08T06:24:31;100165.66;;;11.13;69.34
46946;BME280;32679;40.810;14.498;2023-04-08T06:26:59;100161.25;;;11.31;68.28
46946;BME280;32679;40.810;14.498;2023-04-08T06:29:25;100161.66;;;11.52;67.78
46946;BME280;32679;40.810;14.498;2023-04-08T06:31:51;100152.69;;;11.63;67.40
46946;BME280;32679;40.810;14.498;2023-04-08T06:34:21;100150.88;;;12.46;64.24
46946;BME280;32679;40.810;14.498;2023-04-08T06:36:49;100156.97;;;12.25;64.69
46946;BME280;32679;40.810;14.498;2023-04-08T06:39:17;100149.56;;;12.63;63.43
46946;BME280;32679;40.810;14.498;2023-04-08T06:41:45;100140.56;;;12.77;61.77
46946;BME280;32679;40.810;14.498;2023-04-08T06:44:13;100147.69;;;12.44;62.30
46946;BME280;32679;40.810;14.498;2023-04-08T06:46:41;100145.84;;;12.55;62.65
46946;BME280;32679;40.810;14.498;2023-04-08T06:49:09;100142.19;;;12.51;61.75
46946;BME280;32679;40.810;14.498;2023-04-08T06:51:37;100140.41;;;12.36;62.67
46946;BME280;32679;40.810;14.498;2023-04-08T06:54:05;100135.22;;;12.12;64.74
46946;BME280;32679;40.810;14.498;2023-04-08T06:56:35;100108.34;;;11.77;66.09
46946;BME280;32679;40.810;14.498;2023-04-08T06:59:02;100136.50;;;11.91;66.41
46946;BME280;32679;40.810;14.498;2023-04-08T07:01:29;100132.84;;;11.87;66.37
46946;BME280;32679;40.810;14.498;2023-04-08T07:03:58;100127.91;;;11.80;66.28
46946;BME280;32679;40.810;14.498;2023-04-08T07:06:28;100125.50;;;11.79;66.98
46946;BME280;32679;40.810;14.498;2023-04-08T07:08:58;100128.06;;;12.11;66.75
46946;BME280;32679;40.810;14.498;2023-04-08T07:11:24;100116.25;;;12.21;64.60
46946;BME280;32679;40.810;14.498;2023-04-08T07:13:57;100106.09;;;12.36;63.46
46946;BME280;32679;40.810;14.498;2023-04-08T07:16:22;100112.59;;;12.43;62.75
46946;BME280;32679;40.810;14.498;2023-04-08T07:18:48;100117.31;;;12.39;63.12
46946;BME280;32679;40.810;14.498;2023-04-08T07:21:16;100112.34;;;12.25;63.37
46946;BME280;32679;40.810;14.498;2023-04-08T07:23:44;100106.59;;;12.15;63.42
46946;BME280;32679;40.810;14.498;2023-04-08T07:26:15;100116.56;;;12.16;64.05
46946;BME280;32679;40.810;14.498;2023-04-08T07:28:43;100124.06;;;12.12;63.97
46946;BME280;32679;40.810;14.498;2023-04-08T07:31:13;100110.53;;;11.87;64.14
46946;BME280;32679;40.810;14.498;2023-04-08T07:33:40;100115.78;;;11.92;62.63
46946;BME280;32679;40.810;14.498;2023-04-08T07:36:11;100121.69;;;11.87;63.96
46946;BME280;32679;40.810;14.498;2023-04-08T07:38:41;100133.88;;;11.79;64.09
46946;BME280;32679;40.810;14.498;2023-04-08T07:41:06;100137.84;;;11.78;65.04
46946;BME280;32679;40.810;14.498;2023-04-08T07:43:32;100138.47;;;11.68;67.00
46946;BME280;32679;40.810;14.498;2023-04-08T07:46:03;100148.44;;;11.69;65.87
46946;BME280;32679;40.810;14.498;2023-04-08T07:48:30;100151.94;;;11.66;65.99
46946;BME280;32679;40.810;14.498;2023-04-08T07:50:58;100143.97;;;11.64;66.36
46946;BME280;32679;40.810;14.498;2023-04-08T07:53:29;100145.16;;;11.63;67.45
46946;BME280;32679;40.810;14.498;2023-04-08T07:55:55;100150.94;;;11.54;67.02
46946;BME280;32679;40.810;14.498;2023-04-08T07:58:26;100149.34;;;11.53;68.60
46946;BME280;32679;40.810;14.498;2023-04-08T08:00:52;100142.25;;;11.56;67.82
46946;BME280;32679;40.810;14.498;2023-04-08T08:03:21;100136.91;;;11.47;68.35
46946;BME280;32679;40.810;14.498;2023-04-08T08:05:47;100131.75;;;11.49;69.50
46946;BME280;32679;40.810;14.498;2023-04-08T08:08:15;100131.31;;;11.47;69.32
46946;BME280;32679;40.810;14.498;2023-04-08T08:10:41;100130.34;;;11.59;68.48
46946;BME280;32679;40.810;14.498;2023-04-08T08:13:08;100122.91;;;11.67;67.91
46946;BME280;32679;40.810;14.498;2023-04-08T08:15:38;100123.34;;;11.69;68.69
46946;BME280;32679;40.810;14.498;2023-04-08T08:18:06;100120.25;;;11.74;67.56
46946;BME280;32679;40.810;14.498;2023-04-08T08:20:34;100120.84;;;11.83;66.83
46946;BME280;32679;40.810;14.498;2023-04-08T08:23:05;100107.97;;;12.01;66.54
46946;BME280;32679;40.810;14.498;2023-04-08T08:25:31;100104.13;;;12.10;66.03
46946;BME280;32679;40.810;14.498;2023-04-08T08:27:59;100136.50;;;11.91;65.30
46946;BME280;32679;40.810;14.498;2023-04-08T08:30:24;100117.88;;;11.76;65.88
46946;BME280;32679;40.810;14.498;2023-04-08T08:32:55;100110.22;;;11.92;65.25
46946;BME280;32679;40.810;14.498;2023-04-08T08:35:26;100111.16;;;12.00;64.03
46946;BME280;32679;40.810;14.498;2023-04-08T08:37:54;100107.44;;;12.19;64.12
46946;BME280;32679;40.810;14.498;2023-04-08T08:40:24;100111.56;;;12.28;63.86
46946;BME280;32679;40.810;14.498;2023-04-08T08:42:52;100113.25;;;12.33;62.31
46946;BME280;32679;40.810;14.498;2023-04-08T08:45:21;100112.84;;;12.35;62.88
46946;BME280;32679;40.810;14.498;2023-04-08T08:47:46;100103.81;;;12.41;61.98
46946;BME280;32679;40.810;14.498;2023-04-08T08:50:14;100098.69;;;12.47;59.89
46946;BME280;32679;40.810;14.498;2023-04-08T08:52:47;100088.19;;;12.67;59.35
46946;BME280;32679;40.810;14.498;2023-04-08T08:55:19;100083.97;;;12.80;58.06
46946;BME280;32679;40.810;14.498;2023-04-08T08:57:45;100084.13;;;12.94;56.42
46946;BME280;32679;40.810;14.498;2023-04-08T09:00:13;100073.63;;;13.18;54.62
46946;BME280;32679;40.810;14.498;2023-04-08T09:02:42;100080.84;;;14.07;53.40
46946;BME280;32679;40.810;14.498;2023-04-08T09:05:13;100080.09;;;14.18;51.95
46946;BME280;32679;40.810;14.498;2023-04-08T09:07:39;100072.72;;;13.95;51.73
46946;BME280;32679;40.810;14.498;2023-04-08T09:10:05;100087.16;;;14.01;51.74
46946;BME280;32679;40.810;14.498;2023-04-08T09:12:31;100081.25;;;13.61;53.96
46946;BME280;32679;40.810;14.498;2023-04-08T09:15:07;100077.81;;;13.34;55.16
46946;BME280;32679;40.810;14.498;2023-04-08T09:17:39;100073.38;;;13.30;55.72
46946;BME280;32679;40.810;14.498;2023-04-08T09:20:06;100071.25;;;13.20;56.55
46946;BME280;32679;40.810;14.498;2023-04-08T09:23:01;100059.47;;;13.00;58.84
46946;BME280;32679;40.810;14.498;2023-04-08T09:25:31;100039.50;;;12.98;59.97
46946;BME280;32679;40.810;14.498;2023-04-08T09:27:59;100031.19;;;13.05;59.56
46946;BME280;32679;40.810;14.498;2023-04-08T09:30:27;100039.09;;;12.99;60.49
46946;BME280;32679;40.810;14.498;2023-04-08T09:32:56;100019.53;;;12.96;61.15
46946;BME280;32679;40.810;14.498;2023-04-08T09:35:23;100032.75;;;13.02;60.69
46946;BME280;32679;40.810;14.498;2023-04-08T09:37:49;100031.00;;;12.87;60.49
46946;BME280;32679;40.810;14.498;2023-04-08T09:40:21;100043.56;;;12.70;61.93
46946;BME280;32679;40.810;14.498;2023-04-08T09:42:54;100048.34;;;12.70;61.82
46946;BME280;32679;40.810;14.498;2023-04-08T09:45:26;100046.22;;;12.93;61.96
46946;BME280;32679;40.810;14.498;2023-04-08T09:50:31;100049.84;;;12.97;60.57
46946;BME280;32679;40.810;14.498;2023-04-08T09:53:13;100045.50;;;13.00;59.54
46946;BME280;32679;40.810;14.498;2023-04-08T09:55:46;100048.72;;;13.02;58.83
46946;BME280;32679;40.810;14.498;2023-04-08T09:58:18;100045.50;;;13.00;59.01
46946;BME280;32679;40.810;14.498;2023-04-08T10:00:49;100047.22;;;13.11;59.11
46946;BME280;32679;40.810;14.498;2023-04-08T10:05:53;100052.69;;;13.01;59.17
46946;BME280;32679;40.810;14.498;2023-04-08T10:08:22;100049.44;;;12.95;59.39
46946;BME280;32679;40.810;14.498;2023-04-08T10:10:49;100035.13;;;13.00;57.82
46946;BME280;32679;40.810;14.498;2023-04-08T10:13:16;100038.34;;;13.02;59.60
46946;BME280;32679;40.810;14.498;2023-04-08T10:15:41;100043.41;;;12.93;59.98
46946;BME280;32679;40.810;14.498;2023-04-08T10:20:48;100041.78;;;12.55;61.64
46946;BME280;32679;40.810;14.498;2023-04-08T10:23:16;100044.44;;;12.44;61.83
46946;BME280;32679;40.810;14.498;2023-04-08T10:25:43;100037.66;;;12.45;61.05
46946;BME280;32679;40.810;14.498;2023-04-08T10:30:55;100040.19;;;12.24;62.84
46946;BME280;32679;40.810;14.498;2023-04-08T10:38:33;100031.88;;;12.27;63.15
46946;BME280;32679;40.810;14.498;2023-04-08T10:40:59;100031.13;;;12.30;62.15
46946;BME280;32679;40.810;14.498;2023-04-08T10:43:25;100034.72;;;12.31;61.53
46946;BME280;32679;40.810;14.498;2023-04-08T10:45:52;100041.44;;;12.30;61.53
46946;BME280;32679;40.810;14.498;2023-04-08T10:48:19;100034.19;;;12.22;63.08
46946;BME280;32679;40.810;14.498;2023-04-08T10:53:31;100039.56;;;12.07;65.32
46946;BME280;32679;40.810;14.498;2023-04-08T10:56:07;100047.34;;;11.95;66.37
46946;BME280;32679;40.810;14.498;2023-04-08T10:58:36;100056.41;;;11.88;67.15
46946;BME280;32679;40.810;14.498;2023-04-08T11:01:14;100061.97;;;11.88;65.97
46946;BME280;32679;40.810;14.498;2023-04-08T11:03:44;100063.09;;;11.84;67.20
46946;BME280;32679;40.810;14.498;2023-04-08T11:06:15;100096.72;;;11.94;68.59
46946;BME280;32679;40.810;14.498;2023-04-08T11:08:44;100126.44;;;11.87;70.47
46946;BME280;32679;40.810;14.498;2023-04-08T11:11:10;100144.38;;;11.86;72.40
46946;BME280;32679;40.810;14.498;2023-04-08T11:13:41;100154.56;;;11.78;74.86
46946;BME280;32679;40.810;14.498;2023-04-08T11:16:07;100164.34;;;11.68;78.42
46946;BME280;32679;40.810;14.498;2023-04-08T11:18:41;100181.44;;;11.05;74.42
46946;BME280;32679;40.810;14.498;2023-04-08T11:21:10;100184.50;;;10.14;77.38
46946;BME280;32679;40.810;14.498;2023-04-08T11:23:36;100208.00;;;9.13;81.35
46946;BME280;32679;40.810;14.498;2023-04-08T11:26:04;100203.03;;;8.66;85.81
46946;BME280;32679;40.810;14.498;2023-04-08T11:28:33;100199.09;;;8.30;87.47
46946;BME280;32679;40.810;14.498;2023-04-08T11:47:51;100190.22;;;8.00;100.00
46946;BME280;32679;40.810;14.498;2023-04-08T11:50:24;100184.47;;;7.48;100.00
46946;BME280;32679;40.810;14.498;2023-04-08T11:52:51;100189.41;;;7.09;100.00
46946;BME280;32679;40.810;14.498;2023-04-08T11:55:30;100194.56;;;6.77;100.00
46946;BME280;32679;40.810;14.498;2023-04-08T11:58:00;100171.53;;;6.44;100.00
46946;BME280;32679;40.810;14.498;2023-04-08T12:00:28;100163.84;;;6.28;100.00
46946;BME280;32679;40.810;14.498;2023-04-08T12:02:57;100163.00;;;6.28;100.00
46946;BME280;32679;40.810;14.498;2023-04-08T12:05:25;100189.97;;;6.31;100.00
46946;BME280;32679;40.810;14.498;2023-04-08T12:07:53;100210.06;;;6.70;100.00
46946;BME280;32679;40.810;14.498;2023-04-08T12:10:21;100191.31;;;6.75;100.00
46946;BME280;32679;40.810;14.498;2023-04-08T12:12:47;100185.13;;;6.78;100.00
46946;BME280;32679;40.810;14.498;2023-04-08T12:15:15;100182.81;;;6.80;100.00
46946;BME280;32679;40.810;14.498;2023-04-08T12:17:40;100172.03;;;6.88;100.00
46946;BME280;32679;40.810;14.498;2023-04-08T12:20:08;100162.59;;;6.89;100.00
46946;BME280;32679;40.810;14.498;2023-04-08T12:22:35;100165.66;;;7.08;100.00
46946;BME280;32679;40.810;14.498;2023-04-08T12:25:00;100170.56;;;7.23;100.00
46946;BME280;32679;40.810;14.498;2023-04-08T12:27:32;100161.09;;;7.24;100.00
46946;BME280;32679;40.810;14.498;2023-04-08T12:29:58;100151.78;;;7.29;100.00
46946;BME280;32679;40.810;14.498;2023-04-08T12:32:26;100145.47;;;7.41;100.00
46946;BME280;32679;40.810;14.498;2023-04-08T12:34:52;100144.72;;;7.65;100.00
46946;BME280;32679;40.810;14.498;2023-04-08T12:37:18;100144.25;;;7.75;100.00
46946;BME280;32679;40.810;14.498;2023-04-08T12:39:49;100142.16;;;7.72;100.00
46946;BME280;32679;40.810;14.498;2023-04-08T12:42:14;100140.91;;;7.81;100.00
46946;BME280;32679;40.810;14.498;2023-04-08T12:44:45;100138.16;;;7.94;100.00
46946;BME280;32679;40.810;14.498;2023-04-08T12:47:13;100132.84;;;8.13;100.00
46946;BME280;32679;40.810;14.498;2023-04-08T12:49:39;100123.38;;;8.38;100.00
46946;BME280;32679;40.810;14.498;2023-04-08T12:52:09;100121.75;;;8.01;100.00
46946;BME280;32679;40.810;14.498;2023-04-08T12:54:37;100125.31;;;8.26;100.00
46946;BME280;32679;40.810;14.498;2023-04-08T12:57:05;100115.41;;;8.12;100.00
46946;BME280;32679;40.810;14.498;2023-04-08T12:59:33;100119.78;;;8.13;100.00
46946;BME280;32679;40.810;14.498;2023-04-08T13:02:01;100112.19;;;7.86;99.97
46946;BME280;32679;40.810;14.498;2023-04-08T13:04:29;100106.19;;;7.96;99.72
46946;BME280;32679;40.810;14.498;2023-04-08T13:06:55;100115.97;;;7.81;98.72
46946;BME280;32679;40.810;14.498;2023-04-08T13:09:23;100106.50;;;7.58;97.60
46946;BME280;32679;40.810;14.498;2023-04-08T13:11:49;100092.91;;;7.53;97.49
46946;BME280;32679;40.810;14.498;2023-04-08T13:14:17;100100.03;;;7.54;97.80
46946;BME280;32679;40.810;14.498;2023-04-08T13:16:42;100104.28;;;7.39;96.95
46946;BME280;32679;40.810;14.498;2023-04-08T13:19:13;100093.56;;;7.38;96.55
46946;BME280;32679;40.810;14.498;2023-04-08T13:21:41;100101.44;;;7.48;98.04
46946;BME280;32679;40.810;14.498;2023-04-08T13:24:12;100110.00;;;7.67;98.48
46946;BME280;32679;40.810;14.498;2023-04-08T13:26:42;100115.66;;;7.83;98.35
46946;BME280;32679;40.810;14.498;2023-04-08T13:29:10;100118.53;;;7.86;97.16
46946;BME280;32679;40.810;14.498;2023-04-08T13:31:38;100123.50;;;8.05;98.68
46946;BME280;32679;40.810;14.498;2023-04-08T13:34:03;100123.13;;;8.19;99.51